createdAt,value
2022-07-31T00:00:52.595Z,101047.03
2022-07-31T00:03:19.472Z,101036.44
2022-07-31T00:05:46.420Z,101044.47
2022-07-31T00:08:14.253Z,101048.13
2022-07-31T00:10:41.162Z,101047.25
2022-07-31T00:13:08.006Z,101049.22
2022-07-31T00:15:37.368Z,101043.88
2022-07-31T00:18:04.303Z,101049.44
2022-07-31T00:20:31.255Z,101053.91
2022-07-31T00:22:58.118Z,101048.69
2022-07-31T00:25:25.098Z,101055.88
2022-07-31T00:27:51.957Z,101056.81
2022-07-31T00:30:18.868Z,101063.13
2022-07-31T00:32:46.218Z,101061.44
2022-07-31T00:35:16.501Z,101060.44
2022-07-31T00:37:44.763Z,101067.00
2022-07-31T00:40:14.358Z,101068.59
2022-07-31T00:42:41.887Z,101066.13
2022-07-31T00:45:10.121Z,101067.00
2022-07-31T00:47:40.430Z,101063.59
2022-07-31T00:50:08.038Z,101059.06
2022-07-31T00:52:34.844Z,101060.94
2022-07-31T00:55:01.852Z,101058.34
2022-07-31T00:57:28.766Z,101058.34
2022-07-31T00:59:55.560Z,101053.88
2022-07-31T01:02:22.456Z,101059.44
2022-07-31T01:04:49.255Z,101054.81
2022-07-31T01:07:16.227Z,101059.34
2022-07-31T01:09:43.129Z,101062.09
2022-07-31T01:12:19.141Z,101058.69
2022-07-31T01:14:54.997Z,101056.03
2022-07-31T01:17:23.692Z,101063.19
2022-07-31T01:19:52.334Z,101065.00
2022-07-31T01:22:34.370Z,101060.66
2022-07-31T01:25:01.700Z,101051.78
2022-07-31T01:27:55.713Z,101057.13
2022-07-31T01:30:30.459Z,101062.56
2022-07-31T01:33:01.725Z,101065.22
2022-07-31T01:35:32.924Z,101060.88
2022-07-31T01:38:11.658Z,101055.53
2022-07-31T01:40:43.883Z,101059.16
2022-07-31T01:43:22.470Z,101055.53
2022-07-31T01:45:55.841Z,101062.56
2022-07-31T01:48:24.062Z,101057.47
2022-07-31T01:50:54.289Z,101053.22
2022-07-31T01:53:24.122Z,101047.00
2022-07-31T01:56:01.819Z,101048.69
2022-07-31T01:58:35.152Z,101047.00
2022-07-31T02:01:04.064Z,101048.09
2022-07-31T02:03:43.693Z,101051.59
2022-07-31T02:06:18.233Z,101057.91
2022-07-31T02:08:51.000Z,101057.91
2022-07-31T02:11:20.126Z,101054.50
2022-07-31T02:13:48.741Z,101048.19
2022-07-31T02:16:18.592Z,101059.84
2022-07-31T02:18:48.424Z,101050.13
2022-07-31T02:21:16.024Z,101056.41
2022-07-31T02:23:42.996Z,101057.28
2022-07-31T02:26:10.407Z,101060.06
2022-07-31T02:28:43.963Z,101058.38
2022-07-31T02:31:13.353Z,101063.59
2022-07-31T02:33:43.495Z,101056.41
2022-07-31T02:36:13.143Z,101062.63
2022-07-31T02:38:42.325Z,101065.19
2022-07-31T02:41:11.579Z,101069.78
2022-07-31T02:43:39.637Z,101073.44
2022-07-31T02:46:08.296Z,101066.28
2022-07-31T02:48:37.418Z,101064.56
2022-07-31T02:51:05.584Z,101070.75
2022-07-31T02:53:33.751Z,101068.31
2022-07-31T02:56:04.619Z,101067.44
2022-07-31T02:58:31.584Z,101065.63
2022-07-31T03:01:03.955Z,101068.41
2022-07-31T03:03:30.925Z,101065.72
2022-07-31T03:05:58.356Z,101056.03
2022-07-31T03:08:25.314Z,101064.03
2022-07-31T03:10:52.452Z,101069.38
2022-07-31T03:13:21.064Z,101066.78
2022-07-31T03:15:50.970Z,101058.78
2022-07-31T03:18:19.678Z,101062.44
2022-07-31T03:20:47.170Z,101070.44
2022-07-31T03:23:14.968Z,101061.56
2022-07-31T03:25:42.468Z,101058.16
2022-07-31T03:28:09.493Z,101069.69
2022-07-31T03:30:36.527Z,101065.31
2022-07-31T03:33:03.946Z,101073.31
2022-07-31T03:35:31.159Z,101069.69
2022-07-31T03:37:58.088Z,101066.03
2022-07-31T03:40:25.066Z,101062.75
2022-07-31T03:42:53.291Z,101068.94
2022-07-31T03:45:22.060Z,101069.06
2022-07-31T03:47:49.648Z,101068.19
2022-07-31T03:50:17.588Z,101070.88
2022-07-31T03:52:47.011Z,101068.19
2022-07-31T03:55:14.773Z,101066.47
2022-07-31T03:57:42.875Z,101066.47
2022-07-31T04:00:16.680Z,101069.16
2022-07-31T04:02:45.175Z,101069.28
2022-07-31T04:05:12.253Z,101069.28
2022-07-31T04:07:39.095Z,101076.44
2022-07-31T04:10:06.949Z,101078.25
2022-07-31T04:12:33.898Z,101079.31
2022-07-31T04:15:00.727Z,101069.72
2022-07-31T04:17:27.562Z,101076.66
2022-07-31T04:19:57.871Z,101075.81
2022-07-31T04:22:25.314Z,101076.66
2022-07-31T04:24:52.217Z,101082.09
2022-07-31T04:27:19.589Z,101086.59
2022-07-31T04:29:46.824Z,101083.19
2022-07-31T04:32:13.683Z,101082.31
2022-07-31T04:34:40.641Z,101078.81
2022-07-31T04:37:07.480Z,101078.81
2022-07-31T04:39:34.766Z,101084.25
2022-07-31T04:42:01.874Z,101082.44
2022-07-31T04:44:28.909Z,101078.94
2022-07-31T04:47:02.806Z,101093.22
2022-07-31T04:49:31.120Z,101096.00
2022-07-31T04:51:58.951Z,101102.22
2022-07-31T04:54:26.544Z,101103.16
2022-07-31T04:56:53.431Z,101103.28
2022-07-31T04:59:21.822Z,101102.28
2022-07-31T05:01:50.400Z,101103.28
2022-07-31T05:04:18.474Z,101106.69
2022-07-31T05:06:50.865Z,101100.63
2022-07-31T05:09:25.711Z,101098.91
2022-07-31T05:11:54.597Z,101105.19
2022-07-31T05:14:22.304Z,101115.84
2022-07-31T05:16:49.833Z,101110.53
2022-07-31T05:19:17.055Z,101110.63
2022-07-31T05:21:53.245Z,101115.13
2022-07-31T05:24:32.985Z,101115.97
2022-07-31T05:27:02.271Z,101111.59
2022-07-31T05:29:29.647Z,101116.06
2022-07-31T05:32:00.272Z,101121.41
2022-07-31T05:34:30.340Z,101120.56
2022-07-31T05:36:59.302Z,101118.84
2022-07-31T05:39:26.881Z,101123.34
2022-07-31T05:41:53.730Z,101123.34
2022-07-31T05:44:20.591Z,101118.00
2022-07-31T05:46:47.490Z,101125.16
2022-07-31T05:49:14.707Z,101118.13
2022-07-31T05:51:45.203Z,101124.41
2022-07-31T05:54:12.116Z,101130.59
2022-07-31T05:56:39.035Z,101127.94
2022-07-31T05:59:05.968Z,101129.00
2022-07-31T06:01:32.931Z,101128.16
2022-07-31T06:03:59.824Z,101142.34
2022-07-31T06:06:26.740Z,101138.81
2022-07-31T06:08:53.649Z,101141.47
2022-07-31T06:11:20.914Z,101146.94
2022-07-31T06:13:47.839Z,101151.41
2022-07-31T06:16:15.972Z,101152.38
2022-07-31T06:18:43.082Z,101151.41
2022-07-31T06:23:37.496Z,101146.41
2022-07-31T06:26:04.985Z,101150.03
2022-07-31T06:28:46.517Z,101158.97
2022-07-31T06:31:22.521Z,101156.19
2022-07-31T06:33:50.946Z,101160.72
2022-07-31T06:36:19.061Z,101157.06
2022-07-31T06:38:46.238Z,101158.13
2022-07-31T06:41:33.383Z,101160.47
2022-07-31T06:44:00.180Z,101157.81
2022-07-31T06:46:27.336Z,101169.00
2022-07-31T06:48:54.356Z,101163.59
2022-07-31T06:51:36.830Z,101157.28
2022-07-31T06:54:06.278Z,101165.06
2022-07-31T06:56:33.950Z,101168.72
2022-07-31T06:59:01.656Z,101163.38
2022-07-31T07:01:28.953Z,101169.53
2022-07-31T07:03:56.090Z,101164.13
2022-07-31T07:06:23.730Z,101164.13
2022-07-31T07:08:50.909Z,101165.59
2022-07-31T07:11:19.342Z,101161.78
2022-07-31T07:13:47.038Z,101171.56
2022-07-31T07:16:15.114Z,101173.31
2022-07-31T07:18:43.437Z,101176.91
2022-07-31T07:21:11.006Z,101177.78
2022-07-31T07:23:38.124Z,101177.78
2022-07-31T07:26:05.521Z,101171.47
2022-07-31T07:28:32.529Z,101165.19
2022-07-31T07:30:59.537Z,101180.97
2022-07-31T07:33:40.084Z,101179.03
2022-07-31T07:36:23.042Z,101173.69
2022-07-31T07:38:55.160Z,101175.44
2022-07-31T07:41:22.265Z,101179.78
2022-07-31T07:43:51.640Z,101192.28
2022-07-31T07:46:19.412Z,101179.69
2022-07-31T07:48:46.380Z,101188.56
2022-07-31T07:51:13.926Z,101190.34
2022-07-31T07:53:41.108Z,101189.28
2022-07-31T07:56:08.104Z,101181.06
2022-07-31T07:58:35.101Z,101181.69
2022-07-31T08:01:02.045Z,101184.16
2022-07-31T08:03:49.099Z,101190.25
2022-07-31T08:06:15.803Z,101193.66
2022-07-31T08:08:43.403Z,101191.50
2022-07-31T08:11:10.308Z,101202.84
2022-07-31T08:13:49.345Z,101203.78
2022-07-31T08:16:17.359Z,101208.03
2022-07-31T08:18:44.252Z,101205.25
2022-07-31T08:21:11.119Z,101208.69
2022-07-31T08:23:38.610Z,101213.06
2022-07-31T08:26:06.509Z,101211.25
2022-07-31T08:28:33.591Z,101209.31
2022-07-31T08:31:00.904Z,101217.22
2022-07-31T08:33:27.773Z,101221.59
2022-07-31T08:35:54.761Z,101223.34
2022-07-31T08:38:21.880Z,101222.56
2022-07-31T08:40:48.786Z,101223.13
2022-07-31T08:46:05.033Z,101225.78
2022-07-31T08:48:33.510Z,101234.53
2022-07-31T08:51:03.974Z,101231.78
2022-07-31T08:53:34.972Z,101230.91
2022-07-31T08:56:02.395Z,101234.44
2022-07-31T08:58:29.577Z,101235.41
2022-07-31T09:00:57.168Z,101237.63
2022-07-31T09:03:24.260Z,101238.25
2022-07-31T09:05:51.183Z,101238.78
2022-07-31T09:08:18.143Z,101244.13
2022-07-31T09:10:49.666Z,101245.59
2022-07-31T09:13:18.637Z,101245.19
2022-07-31T09:15:46.667Z,101243.84
2022-07-31T09:18:25.468Z,101240.00
2022-07-31T09:20:59.384Z,101248.00
2022-07-31T09:23:28.222Z,101246.78
2022-07-31T09:26:06.357Z,101246.66
2022-07-31T09:28:34.659Z,101244.31
2022-07-31T09:31:02.877Z,101251.84
2022-07-31T09:33:30.808Z,101249.09
2022-07-31T09:35:59.296Z,101254.63
2022-07-31T09:38:38.035Z,101259.41
2022-07-31T09:41:55.782Z,101255.22
2022-07-31T09:44:09.648Z,101259.25
2022-07-31T09:46:44.778Z,101258.50
2022-07-31T09:49:11.860Z,101264.91
2022-07-31T09:51:40.913Z,101272.22
2022-07-31T09:54:08.959Z,101268.13
2022-07-31T09:56:36.402Z,101268.25
2022-07-31T09:59:03.725Z,101269.19
2022-07-31T10:01:33.361Z,101269.19
2022-07-31T10:04:01.012Z,101267.47
2022-07-31T10:06:31.843Z,101269.31
2022-07-31T10:09:00.413Z,101273.59
2022-07-31T10:11:30.671Z,101280.03
2022-07-31T10:14:02.523Z,101278.31
2022-07-31T10:16:35.895Z,101276.81
2022-07-31T10:19:11.549Z,101278.75
2022-07-31T10:21:41.869Z,101284.25
2022-07-31T10:24:11.270Z,101284.34
2022-07-31T10:26:59.714Z,101289.03
2022-07-31T10:29:27.151Z,101289.97
2022-07-31T10:31:59.452Z,101290.81
2022-07-31T10:34:27.506Z,101295.41
2022-07-31T10:37:02.688Z,101306.03
2022-07-31T10:39:44.185Z,101298.69
2022-07-31T10:42:36.903Z,101303.94
2022-07-31T10:45:07.926Z,101304.94
2022-07-31T10:47:34.851Z,101303.59
2022-07-31T10:50:02.682Z,101307.66
2022-07-31T10:52:36.172Z,101314.31
2022-07-31T10:55:16.139Z,101327.31
2022-07-31T10:57:56.843Z,101324.47
2022-07-31T11:00:29.767Z,101319.88
2022-07-31T11:02:57.667Z,101324.06
2022-07-31T11:05:26.244Z,101321.22
2022-07-31T11:08:05.157Z,101325.38
2022-07-31T11:10:34.362Z,101332.84
2022-07-31T11:13:05.328Z,101332.13
2022-07-31T11:15:32.605Z,101330.63
2022-07-31T11:18:20.959Z,101328.22
2022-07-31T11:20:48.113Z,101334.84
2022-07-31T11:23:17.839Z,101331.41
2022-07-31T11:25:46.826Z,101326.00
2022-07-31T11:28:19.203Z,101330.81
2022-07-31T11:30:53.665Z,101330.06
2022-07-31T11:33:40.998Z,101333.56
2022-07-31T11:36:15.356Z,101328.53
2022-07-31T11:38:46.865Z,101325.25
2022-07-31T11:41:15.180Z,101330.44
2022-07-31T11:43:47.256Z,101320.84
2022-07-31T11:46:30.023Z,101319.06
2022-07-31T11:48:57.501Z,101324.38
2022-07-31T11:51:26.363Z,101314.59
2022-07-31T11:53:56.846Z,101318.94
2022-07-31T11:56:26.528Z,101311.81
2022-07-31T11:58:56.187Z,101312.56
2022-07-31T12:01:28.122Z,101304.38
2022-07-31T12:03:56.035Z,101308.75
2022-07-31T12:06:23.086Z,101321.03
2022-07-31T12:08:51.292Z,101314.72
2022-07-31T12:11:19.942Z,101316.56
2022-07-31T12:13:48.321Z,101314.84
2022-07-31T12:16:17.225Z,101313.13
2022-07-31T12:18:57.228Z,101315.41
2022-07-31T12:21:31.212Z,101309.50
2022-07-31T12:23:58.607Z,101330.19
2022-07-31T12:26:26.180Z,101325.41
2022-07-31T12:29:01.289Z,101323.28
2022-07-31T12:31:29.950Z,101314.91
2022-07-31T12:33:56.916Z,101317.97
2022-07-31T12:36:23.877Z,101317.22
2022-07-31T12:39:01.573Z,101321.38
2022-07-31T12:41:30.007Z,101321.91
2022-07-31T12:44:14.557Z,101329.72
2022-07-31T12:46:41.965Z,101321.97
2022-07-31T12:49:09.700Z,101328.22
2022-07-31T12:51:44.878Z,101323.84
2022-07-31T12:54:15.471Z,101325.63
2022-07-31T12:56:42.980Z,101330.03
2022-07-31T12:59:10.799Z,101328.81
2022-07-31T13:01:38.176Z,101327.88
2022-07-31T13:04:07.805Z,101333.88
2022-07-31T13:06:46.060Z,101325.88
2022-07-31T13:09:12.954Z,101319.38
2022-07-31T13:11:45.539Z,101330.38
2022-07-31T13:14:14.045Z,101326.66
2022-07-31T13:16:40.966Z,101338.19
2022-07-31T13:19:08.283Z,101326.66
2022-07-31T13:21:48.330Z,101331.13
2022-07-31T13:24:21.249Z,101334.44
2022-07-31T13:26:49.846Z,101332.63
2022-07-31T13:29:18.171Z,101330.84
2022-07-31T13:31:45.487Z,101331.38
2022-07-31T13:34:13.079Z,101335.75
2022-07-31T13:36:40.171Z,101333.06
2022-07-31T13:39:08.543Z,101329.25
2022-07-31T13:41:37.900Z,101333.53
2022-07-31T13:44:06.918Z,101319.78
2022-07-31T13:46:34.064Z,101327.47
2022-07-31T13:49:02.233Z,101325.34
2022-07-31T13:51:30.355Z,101317.13
2022-07-31T13:53:57.352Z,101324.81
2022-07-31T13:56:38.790Z,101323.06
2022-07-31T13:59:10.028Z,101323.06
2022-07-31T14:02:03.781Z,101326.94
2022-07-31T14:04:26.037Z,101324.59
2022-07-31T14:06:57.236Z,101326.94
2022-07-31T14:09:24.993Z,101319.06
2022-07-31T14:11:52.156Z,101323.09
2022-07-31T14:14:22.804Z,101322.47
2022-07-31T14:16:50.911Z,101325.03
2022-07-31T14:19:17.948Z,101323.94
2022-07-31T14:21:55.971Z,101315.66
2022-07-31T14:24:25.768Z,101329.75
2022-07-31T14:26:52.800Z,101331.53
2022-07-31T14:29:19.925Z,101335.41
2022-07-31T14:31:46.818Z,101332.94
2022-07-31T14:34:13.699Z,101332.72
2022-07-31T14:36:40.579Z,101326.53
2022-07-31T14:39:07.510Z,101327.41
2022-07-31T14:41:34.421Z,101332.72
2022-07-31T14:44:01.397Z,101329.28
2022-07-31T14:46:28.267Z,101323.53
2022-07-31T14:48:55.268Z,101320.22
2022-07-31T14:51:22.265Z,101320.81
2022-07-31T14:53:49.232Z,101315.47
2022-07-31T14:56:27.232Z,101313.47
2022-07-31T14:59:02.118Z,101312.09
2022-07-31T15:01:30.751Z,101316.78
2022-07-31T15:03:58.196Z,101318.59
2022-07-31T15:06:46.389Z,101315.00
2022-07-31T15:09:16.281Z,101316.88
2022-07-31T15:12:00.122Z,101309.00
2022-07-31T15:14:27.759Z,101321.59
2022-07-31T15:16:54.640Z,101314.53
2022-07-31T15:19:24.590Z,101310.03
2022-07-31T15:22:15.827Z,101315.38
2022-07-31T15:24:42.373Z,101312.72
2022-07-31T15:27:13.090Z,101312.81
2022-07-31T15:30:04.866Z,101315.38
2022-07-31T15:32:27.163Z,101317.28
2022-07-31T15:34:54.445Z,101315.47
2022-07-31T15:37:21.680Z,101324.13
2022-07-31T15:40:03.939Z,101320.47
2022-07-31T15:42:32.222Z,101315.16
2022-07-31T15:44:59.598Z,101327.00
2022-07-31T15:47:26.484Z,101315.25
2022-07-31T15:49:53.540Z,101322.59
2022-07-31T15:52:20.523Z,101315.97
2022-07-31T15:54:51.505Z,101319.50
2022-07-31T15:57:22.620Z,101309.50
2022-07-31T15:59:50.681Z,101311.94
2022-07-31T16:02:18.331Z,101314.91
2022-07-31T16:04:52.793Z,101315.66
2022-07-31T16:08:32.162Z,101318.25
2022-07-31T16:10:15.253Z,101308.72
2022-07-31T16:12:45.442Z,101306.19
2022-07-31T16:15:12.888Z,101308.94
2022-07-31T16:17:40.256Z,101308.94
2022-07-31T16:20:12.162Z,101309.72
2022-07-31T16:22:40.589Z,101312.47
2022-07-31T16:25:10.114Z,101316.38
2022-07-31T16:27:38.756Z,101306.69
2022-07-31T16:30:07.816Z,101312.78
2022-07-31T16:32:35.239Z,101320.03
2022-07-31T16:35:03.609Z,101312.78
2022-07-31T16:37:51.876Z,101301.03
2022-07-31T16:40:29.357Z,101306.25
2022-07-31T16:43:47.832Z,101305.53
2022-07-31T16:45:50.963Z,101307.63
2022-07-31T16:48:17.923Z,101311.47
2022-07-31T16:50:48.417Z,101315.09
2022-07-31T16:54:09.994Z,101308.81
2022-07-31T16:56:08.756Z,101318.31
2022-07-31T16:58:35.777Z,101305.91
2022-07-31T17:01:04.438Z,101303.88
2022-07-31T17:04:01.461Z,101306.56
2022-07-31T17:06:18.627Z,101307.09
2022-07-31T17:09:16.805Z,101306.16
2022-07-31T17:11:50.027Z,101296.53
2022-07-31T17:14:21.884Z,101304.31
2022-07-31T17:16:50.550Z,101309.38
2022-07-31T17:19:36.070Z,101304.78
2022-07-31T17:22:05.802Z,101303.59
2022-07-31T17:24:36.879Z,101301.72
2022-07-31T17:27:08.694Z,101302.25
2022-07-31T17:29:37.602Z,101302.34
2022-07-31T17:32:04.813Z,101304.91
2022-07-31T17:34:31.912Z,101312.91
2022-07-31T17:36:58.840Z,101314.84
2022-07-31T17:39:30.402Z,101313.84
2022-07-31T17:41:59.810Z,101325.19
2022-07-31T17:44:26.751Z,101322.59
2022-07-31T17:46:54.449Z,101319.00
2022-07-31T17:49:21.731Z,101326.88
2022-07-31T17:52:07.934Z,101331.25
2022-07-31T17:54:35.252Z,101327.09
2022-07-31T17:57:02.612Z,101324.72
2022-07-31T17:59:29.784Z,101323.03
2022-07-31T18:02:00.616Z,101326.44
2022-07-31T18:04:28.672Z,101319.19
2022-07-31T18:06:55.979Z,101324.53
2022-07-31T18:09:23.901Z,101320.72
2022-07-31T18:11:52.450Z,101328.72
2022-07-31T18:14:20.143Z,101326.69
2022-07-31T18:16:48.042Z,101331.81
2022-07-31T18:19:15.931Z,101342.28
2022-07-31T18:21:43.008Z,101338.75
2022-07-31T18:24:09.947Z,101335.13
2022-07-31T18:26:37.673Z,101335.34
2022-07-31T18:29:05.354Z,101333.22
2022-07-31T18:31:35.300Z,101334.41
2022-07-31T18:34:04.632Z,101336.56
2022-07-31T18:36:35.840Z,101333.47
2022-07-31T18:39:04.051Z,101328.56
2022-07-31T18:41:31.437Z,101326.41
2022-07-31T18:43:58.806Z,101331.47
2022-07-31T18:46:25.934Z,101333.81
2022-07-31T18:48:55.797Z,101337.16
2022-07-31T18:51:27.984Z,101337.91
2022-07-31T18:53:56.275Z,101331.38
2022-07-31T18:56:24.636Z,101339.16
2022-07-31T18:58:53.160Z,101333.94
2022-07-31T19:01:21.404Z,101346.44
2022-07-31T19:03:49.162Z,101350.81
2022-07-31T19:06:17.230Z,101354.00
2022-07-31T19:08:44.706Z,101347.69
2022-07-31T19:11:12.544Z,101347.16
2022-07-31T19:13:39.481Z,101346.59
2022-07-31T19:16:07.199Z,101347.03
2022-07-31T19:18:34.503Z,101350.84
2022-07-31T19:21:23.475Z,101347.63
2022-07-31T19:23:49.624Z,101348.69
2022-07-31T19:26:16.769Z,101351.69
2022-07-31T19:28:44.337Z,101349.13
2022-07-31T19:31:15.815Z,101356.16
2022-07-31T19:33:42.856Z,101342.28
2022-07-31T19:36:12.882Z,101348.66
2022-07-31T19:38:41.536Z,101347.81
2022-07-31T19:41:08.483Z,101361.25
2022-07-31T19:43:38.649Z,101352.81
2022-07-31T19:46:11.969Z,101345.94
2022-07-31T19:48:45.272Z,101352.03
2022-07-31T19:51:14.655Z,101354.38
2022-07-31T19:53:42.640Z,101351.59
2022-07-31T19:56:12.106Z,101349.78
2022-07-31T19:58:42.031Z,101343.41
2022-07-31T20:01:10.358Z,101345.09
2022-07-31T20:03:39.610Z,101346.91
2022-07-31T20:06:07.429Z,101350.44
2022-07-31T20:08:35.668Z,101353.09
2022-07-31T20:11:04.598Z,101353.97
2022-07-31T20:13:38.279Z,101358.34
2022-07-31T20:16:08.802Z,101355.56
2022-07-31T20:18:37.563Z,101362.63
2022-07-31T20:21:07.700Z,101360.91
2022-07-31T20:23:38.704Z,101366.88
2022-07-31T20:26:07.850Z,101371.38
2022-07-31T20:28:36.119Z,101372.44
2022-07-31T20:31:03.269Z,101377.84
2022-07-31T20:33:31.952Z,101378.63
2022-07-31T20:35:59.172Z,101378.63
2022-07-31T20:38:26.287Z,101378.19
2022-07-31T20:40:55.859Z,101385.53
2022-07-31T20:43:28.045Z,101390.13
2022-07-31T20:46:00.006Z,101391.91
2022-07-31T20:48:32.578Z,101390.22
2022-07-31T20:51:05.152Z,101386.91
2022-07-31T20:53:32.982Z,101385.97
2022-07-31T20:56:00.425Z,101391.38
2022-07-31T20:58:28.955Z,101395.09
2022-07-31T21:00:56.586Z,101394.34
2022-07-31T21:03:25.155Z,101390.75
2022-07-31T21:05:52.687Z,101392.75
2022-07-31T21:08:20.130Z,101394.56
2022-07-31T21:10:48.472Z,101389.22
2022-07-31T21:13:15.863Z,101388.47
2022-07-31T21:15:45.273Z,101401.81
2022-07-31T21:18:14.603Z,101391.16
2022-07-31T21:20:50.807Z,101390.41
2022-07-31T21:23:20.933Z,101400.28
2022-07-31T21:25:48.352Z,101387.94
2022-07-31T21:28:16.007Z,101396.88
2022-07-31T21:30:43.431Z,101398.59
2022-07-31T21:33:10.823Z,101399.53
2022-07-31T21:35:40.352Z,101392.47
2022-07-31T21:38:12.288Z,101390.78
2022-07-31T21:40:40.684Z,101393.47
2022-07-31T21:43:08.951Z,101400.72
2022-07-31T21:45:47.753Z,101397.19
2022-07-31T21:48:23.489Z,101399.00
2022-07-31T21:50:50.873Z,101403.47
2022-07-31T21:53:17.853Z,101400.91
2022-07-31T21:55:44.928Z,101398.25
2022-07-31T21:58:12.043Z,101409.84
2022-07-31T22:00:39.080Z,101402.84
2022-07-31T22:03:06.655Z,101401.09
2022-07-31T22:06:12.535Z,101401.09
2022-07-31T22:08:39.521Z,101400.16
2022-07-31T22:11:06.851Z,101402.91
2022-07-31T22:13:33.836Z,101392.38
2022-07-31T22:16:01.195Z,101390.63
2022-07-31T22:18:30.047Z,101382.75
2022-07-31T22:20:58.631Z,101379.97
2022-07-31T22:23:27.763Z,101384.56
2022-07-31T22:25:55.474Z,101386.38
2022-07-31T22:28:23.714Z,101388.16
2022-07-31T22:30:51.530Z,101383.59
2022-07-31T22:33:19.146Z,101383.50
2022-07-31T22:36:00.381Z,101388.09
2022-07-31T22:38:30.264Z,101392.56
2022-07-31T22:41:01.702Z,101385.50
2022-07-31T22:43:47.419Z,101382.09
2022-07-31T22:46:16.069Z,101383.03
2022-07-31T22:48:45.749Z,101388.47
2022-07-31T22:51:14.928Z,101386.69
2022-07-31T22:53:43.501Z,101392.94
2022-07-31T22:56:10.393Z,101390.19
2022-07-31T22:58:37.296Z,101386.69
2022-07-31T23:01:04.255Z,101390.28
2022-07-31T23:03:31.179Z,101392.09
2022-07-31T23:06:28.183Z,101398.19
2022-07-31T23:08:45.275Z,101396.38
2022-07-31T23:11:12.835Z,101399.16
2022-07-31T23:13:39.892Z,101408.19
2022-07-31T23:16:06.851Z,101403.81
2022-07-31T23:18:34.639Z,101402.94
2022-07-31T23:21:01.523Z,101400.19
2022-07-31T23:23:28.416Z,101398.47
2022-07-31T23:25:55.314Z,101397.72
2022-07-31T23:28:22.213Z,101393.25
2022-07-31T23:30:49.048Z,101401.25
2022-07-31T23:33:16.929Z,101401.25
2022-07-31T23:35:44.344Z,101404.66
2022-07-31T23:38:11.476Z,101399.34
2022-07-31T23:40:38.288Z,101402.13
2022-07-31T23:43:05.717Z,101395.25
2022-07-31T23:45:32.628Z,101396.97
2022-07-31T23:47:59.499Z,101392.50
2022-07-31T23:50:26.870Z,101390.78
2022-07-31T23:52:53.693Z,101391.66
2022-07-31T23:55:20.760Z,101395.25
2022-07-31T23:57:47.965Z,101388.22
